sensor_id;sensor_type;location;lat;lon;timestamp;P1;durP1;ratioP1;P2;durP2;ratioP2
4434;SDS011;46552;52.150;8.428;2022-12-29T00:02:22;6.37;;;1.97;;
4434;SDS011;46552;52.150;8.428;2022-12-29T00:04:49;4.13;;;2.13;;
4434;SDS011;46552;52.150;8.428;2022-12-29T00:07:17;3.37;;;1.57;;
4434;SDS011;46552;52.150;8.428;2022-12-29T00:09:46;2.53;;;1.10;;
4434;SDS011;46552;52.150;8.428;2022-12-29T00:12:14;2.90;;;1.60;;
4434;SDS011;46552;52.150;8.428;2022-12-29T00:14:42;3.27;;;1.63;;
4434;SDS011;46552;52.150;8.428;2022-12-29T00:17:27;2.40;;;1.20;;
4434;SDS011;46552;52.150;8.428;2022-12-29T00:19:54;10.43;;;1.87;;
4434;SDS011;46552;52.150;8.428;2022-12-29T00:22:38;3.10;;;1.60;;
4434;SDS011;46552;52.150;8.428;2022-12-29T00:25:22;3.27;;;1.77;;
4434;SDS011;46552;52.150;8.428;2022-12-29T00:28:09;3.03;;;1.73;;
4434;SDS011;46552;52.150;8.428;2022-12-29T00:30:53;2.80;;;1.40;;
4434;SDS011;46552;52.150;8.428;2022-12-29T00:33:43;3.47;;;1.70;;
4434;SDS011;46552;52.150;8.428;2022-12-29T00:36:28;3.70;;;1.67;;
4434;SDS011;46552;52.150;8.428;2022-12-29T00:38:59;2.80;;;1.50;;
4434;SDS011;46552;52.150;8.428;2022-12-29T00:41:43;4.90;;;1.53;;
4434;SDS011;46552;52.150;8.428;2022-12-29T00:44:40;4.20;;;1.83;;
4434;SDS011;46552;52.150;8.428;2022-12-29T00:47:07;4.30;;;1.73;;
4434;SDS011;46552;52.150;8.428;2022-12-29T00:49:34;4.00;;;2.20;;
4434;SDS011;46552;52.150;8.428;2022-12-29T00:52:01;3.07;;;1.40;;
4434;SDS011;46552;52.150;8.428;2022-12-29T00:54:30;4.33;;;1.80;;
4434;SDS011;46552;52.150;8.428;2022-12-29T00:57:00;3.27;;;1.47;;
4434;SDS011;46552;52.150;8.428;2022-12-29T00:59:27;5.93;;;1.87;;
4434;SDS011;46552;52.150;8.428;2022-12-29T01:01:56;3.40;;;1.60;;
4434;SDS011;46552;52.150;8.428;2022-12-29T01:04:24;3.23;;;1.67;;
4434;SDS011;46552;52.150;8.428;2022-12-29T01:06:52;3.63;;;1.60;;
4434;SDS011;46552;52.150;8.428;2022-12-29T01:09:20;2.83;;;1.37;;
4434;SDS011;46552;52.150;8.428;2022-12-29T01:12:05;3.80;;;1.30;;
4434;SDS011;46552;52.150;8.428;2022-12-29T01:14:33;6.10;;;1.40;;
4434;SDS011;46552;52.150;8.428;2022-12-29T01:17:02;3.37;;;1.70;;
4434;SDS011;46552;52.150;8.428;2022-12-29T01:19:30;4.93;;;1.27;;
4434;SDS011;46552;52.150;8.428;2022-12-29T01:21:59;2.60;;;1.40;;
4434;SDS011;46552;52.150;8.428;2022-12-29T01:24:27;3.00;;;1.40;;
4434;SDS011;46552;52.150;8.428;2022-12-29T01:26:55;2.67;;;1.30;;
4434;SDS011;46552;52.150;8.428;2022-12-29T01:29:24;7.13;;;1.40;;
4434;SDS011;46552;52.150;8.428;2022-12-29T01:31:52;3.07;;;1.67;;
4434;SDS011;46552;52.150;8.428;2022-12-29T01:34:21;3.23;;;1.20;;
4434;SDS011;46552;52.150;8.428;2022-12-29T01:36:48;5.30;;;1.50;;
4434;SDS011;46552;52.150;8.428;2022-12-29T01:39:15;2.30;;;1.10;;
4434;SDS011;46552;52.150;8.428;2022-12-29T01:41:42;3.37;;;1.37;;
4434;SDS011;46552;52.150;8.428;2022-12-29T01:47:13;6.07;;;1.93;;
4434;SDS011;46552;52.150;8.428;2022-12-29T01:49:46;4.00;;;2.07;;
4434;SDS011;46552;52.150;8.428;2022-12-29T01:52:15;3.83;;;2.00;;
4434;SDS011;46552;52.150;8.428;2022-12-29T01:54:43;2.60;;;1.20;;
4434;SDS011;46552;52.150;8.428;2022-12-29T01:57:18;3.80;;;1.47;;
4434;SDS011;46552;52.150;8.428;2022-12-29T01:59:49;3.97;;;1.17;;
4434;SDS011;46552;52.150;8.428;2022-12-29T02:02:21;2.80;;;1.40;;
4434;SDS011;46552;52.150;8.428;2022-12-29T02:04:51;4.37;;;1.67;;
4434;SDS011;46552;52.150;8.428;2022-12-29T02:07:21;2.93;;;1.10;;
4434;SDS011;46552;52.150;8.428;2022-12-29T02:09:51;2.90;;;1.60;;
4434;SDS011;46552;52.150;8.428;2022-12-29T02:12:21;2.70;;;1.20;;
4434;SDS011;46552;52.150;8.428;2022-12-29T02:14:50;3.50;;;1.77;;
4434;SDS011;46552;52.150;8.428;2022-12-29T02:17:25;4.10;;;1.33;;
4434;SDS011;46552;52.150;8.428;2022-12-29T02:23:03;2.60;;;1.30;;
4434;SDS011;46552;52.150;8.428;2022-12-29T02:25:55;2.60;;;1.50;;
4434;SDS011;46552;52.150;8.428;2022-12-29T02:29:02;4.83;;;1.40;;
4434;SDS011;46552;52.150;8.428;2022-12-29T02:31:45;3.10;;;1.17;;
4434;SDS011;46552;52.150;8.428;2022-12-29T02:34:20;3.00;;;1.10;;
4434;SDS011;46552;52.150;8.428;2022-12-29T02:36:56;2.83;;;1.30;;
4434;SDS011;46552;52.150;8.428;2022-12-29T02:39:30;2.60;;;1.30;;
4434;SDS011;46552;52.150;8.428;2022-12-29T02:42:05;2.17;;;0.87;;
4434;SDS011;46552;52.150;8.428;2022-12-29T02:44:42;2.37;;;0.97;;
4434;SDS011;46552;52.150;8.428;2022-12-29T02:47:22;2.80;;;1.10;;
4434;SDS011;46552;52.150;8.428;2022-12-29T02:49:55;3.20;;;0.90;;
4434;SDS011;46552;52.150;8.428;2022-12-29T02:52:27;2.03;;;0.93;;
4434;SDS011;46552;52.150;8.428;2022-12-29T02:55:00;2.53;;;1.37;;
4434;SDS011;46552;52.150;8.428;2022-12-29T02:57:30;2.00;;;0.80;;
4434;SDS011;46552;52.150;8.428;2022-12-29T03:00:00;2.57;;;1.03;;
4434;SDS011;46552;52.150;8.428;2022-12-29T03:05:55;2.27;;;0.60;;
4434;SDS011;46552;52.150;8.428;2022-12-29T03:08:31;4.70;;;1.00;;
4434;SDS011;46552;52.150;8.428;2022-12-29T03:11:07;1.90;;;0.60;;
4434;SDS011;46552;52.150;8.428;2022-12-29T03:13:52;2.70;;;0.70;;
4434;SDS011;46552;52.150;8.428;2022-12-29T03:16:43;2.13;;;0.83;;
4434;SDS011;46552;52.150;8.428;2022-12-29T03:19:14;5.20;;;1.17;;
4434;SDS011;46552;52.150;8.428;2022-12-29T03:21:46;2.37;;;0.70;;
4434;SDS011;46552;52.150;8.428;2022-12-29T03:24:38;5.17;;;1.03;;
4434;SDS011;46552;52.150;8.428;2022-12-29T03:27:08;2.50;;;0.93;;
4434;SDS011;46552;52.150;8.428;2022-12-29T03:29:42;1.80;;;0.57;;
4434;SDS011;46552;52.150;8.428;2022-12-29T03:32:17;2.50;;;1.20;;
4434;SDS011;46552;52.150;8.428;2022-12-29T03:34:48;2.57;;;1.07;;
4434;SDS011;46552;52.150;8.428;2022-12-29T03:37:17;2.10;;;0.73;;
4434;SDS011;46552;52.150;8.428;2022-12-29T03:39:49;3.07;;;1.00;;
4434;SDS011;46552;52.150;8.428;2022-12-29T03:42:17;3.40;;;0.57;;
4434;SDS011;46552;52.150;8.428;2022-12-29T03:44:49;2.30;;;0.83;;
4434;SDS011;46552;52.150;8.428;2022-12-29T03:47:20;1.80;;;0.67;;
4434;SDS011;46552;52.150;8.428;2022-12-29T03:49:50;10.40;;;0.73;;
4434;SDS011;46552;52.150;8.428;2022-12-29T03:52:18;2.57;;;0.73;;
4434;SDS011;46552;52.150;8.428;2022-12-29T03:54:45;4.03;;;0.93;;
4434;SDS011;46552;52.150;8.428;2022-12-29T03:57:13;1.90;;;0.63;;
4434;SDS011;46552;52.150;8.428;2022-12-29T03:59:40;2.57;;;0.70;;
4434;SDS011;46552;52.150;8.428;2022-12-29T04:02:07;2.10;;;0.70;;
4434;SDS011;46552;52.150;8.428;2022-12-29T04:04:34;3.50;;;0.60;;
4434;SDS011;46552;52.150;8.428;2022-12-29T04:07:03;3.80;;;0.90;;
4434;SDS011;46552;52.150;8.428;2022-12-29T04:09:30;2.20;;;0.80;;
4434;SDS011;46552;52.150;8.428;2022-12-29T04:11:57;2.10;;;0.73;;
4434;SDS011;46552;52.150;8.428;2022-12-29T04:14:24;10.30;;;0.80;;
4434;SDS011;46552;52.150;8.428;2022-12-29T04:16:51;2.10;;;0.80;;
4434;SDS011;46552;52.150;8.428;2022-12-29T04:19:19;4.17;;;0.90;;
4434;SDS011;46552;52.150;8.428;2022-12-29T04:21:46;6.43;;;1.27;;
4434;SDS011;46552;52.150;8.428;2022-12-29T04:24:14;3.53;;;0.67;;
4434;SDS011;46552;52.150;8.428;2022-12-29T04:26:41;5.77;;;0.83;;
4434;SDS011;46552;52.150;8.428;2022-12-29T04:29:08;2.10;;;0.87;;
4434;SDS011;46552;52.150;8.428;2022-12-29T04:31:35;2.73;;;0.90;;
4434;SDS011;46552;52.150;8.428;2022-12-29T04:34:02;2.30;;;0.83;;
4434;SDS011;46552;52.150;8.428;2022-12-29T04:36:30;6.40;;;0.80;;
4434;SDS011;46552;52.150;8.428;2022-12-29T04:38:57;2.30;;;0.90;;
4434;SDS011;46552;52.150;8.428;2022-12-29T04:41:27;4.30;;;1.10;;
4434;SDS011;46552;52.150;8.428;2022-12-29T04:43:54;2.13;;;0.87;;
4434;SDS011;46552;52.150;8.428;2022-12-29T04:46:21;2.77;;;0.97;;
4434;SDS011;46552;52.150;8.428;2022-12-29T04:48:49;2.60;;;0.93;;
4434;SDS011;46552;52.150;8.428;2022-12-29T04:51:16;4.93;;;1.10;;
4434;SDS011;46552;52.150;8.428;2022-12-29T04:53:43;3.30;;;1.30;;
4434;SDS011;46552;52.150;8.428;2022-12-29T04:56:10;2.60;;;0.90;;
4434;SDS011;46552;52.150;8.428;2022-12-29T04:58:39;2.03;;;0.70;;
4434;SDS011;46552;52.150;8.428;2022-12-29T05:01:08;4.73;;;1.33;;
4434;SDS011;46552;52.150;8.428;2022-12-29T05:03:35;2.40;;;0.90;;
4434;SDS011;46552;52.150;8.428;2022-12-29T05:06:03;2.03;;;0.70;;
4434;SDS011;46552;52.150;8.428;2022-12-29T05:08:30;2.03;;;0.73;;
4434;SDS011;46552;52.150;8.428;2022-12-29T05:10:58;3.70;;;0.90;;
4434;SDS011;46552;52.150;8.428;2022-12-29T05:13:25;4.07;;;1.30;;
4434;SDS011;46552;52.150;8.428;2022-12-29T05:15:53;2.80;;;1.10;;
4434;SDS011;46552;52.150;8.428;2022-12-29T05:18:20;3.70;;;1.20;;
4434;SDS011;46552;52.150;8.428;2022-12-29T05:20:47;2.60;;;1.00;;
4434;SDS011;46552;52.150;8.428;2022-12-29T05:23:14;3.90;;;1.03;;
4434;SDS011;46552;52.150;8.428;2022-12-29T05:25:43;4.90;;;1.13;;
4434;SDS011;46552;52.150;8.428;2022-12-29T05:28:11;3.40;;;1.10;;
4434;SDS011;46552;52.150;8.428;2022-12-29T05:30:38;3.13;;;1.00;;
4434;SDS011;46552;52.150;8.428;2022-12-29T05:33:07;2.07;;;0.60;;
4434;SDS011;46552;52.150;8.428;2022-12-29T05:35:36;5.10;;;1.40;;
4434;SDS011;46552;52.150;8.428;2022-12-29T05:38:03;2.40;;;1.10;;
4434;SDS011;46552;52.150;8.428;2022-12-29T05:40:30;3.87;;;1.43;;
4434;SDS011;46552;52.150;8.428;2022-12-29T05:42:57;5.03;;;1.20;;
4434;SDS011;46552;52.150;8.428;2022-12-29T05:45:24;2.73;;;1.17;;
4434;SDS011;46552;52.150;8.428;2022-12-29T05:47:51;2.40;;;0.90;;
4434;SDS011;46552;52.150;8.428;2022-12-29T05:50:21;3.70;;;0.80;;
4434;SDS011;46552;52.150;8.428;2022-12-29T05:52:48;2.13;;;0.90;;
4434;SDS011;46552;52.150;8.428;2022-12-29T05:55:16;4.07;;;0.90;;
4434;SDS011;46552;52.150;8.428;2022-12-29T05:57:43;2.60;;;0.90;;
4434;SDS011;46552;52.150;8.428;2022-12-29T06:00:11;2.67;;;0.90;;
4434;SDS011;46552;52.150;8.428;2022-12-29T06:02:39;8.00;;;1.60;;
4434;SDS011;46552;52.150;8.428;2022-12-29T06:05:07;4.03;;;1.43;;
4434;SDS011;46552;52.150;8.428;2022-12-29T06:07:36;3.20;;;0.90;;
4434;SDS011;46552;52.150;8.428;2022-12-29T06:10:04;3.20;;;0.60;;
4434;SDS011;46552;52.150;8.428;2022-12-29T06:12:32;3.70;;;0.70;;
4434;SDS011;46552;52.150;8.428;2022-12-29T06:14:59;2.43;;;0.93;;
4434;SDS011;46552;52.150;8.428;2022-12-29T06:17:27;3.03;;;0.60;;
4434;SDS011;46552;52.150;8.428;2022-12-29T06:19:54;4.00;;;0.57;;
4434;SDS011;46552;52.150;8.428;2022-12-29T06:22:21;3.00;;;0.77;;
4434;SDS011;46552;52.150;8.428;2022-12-29T06:24:50;3.23;;;0.93;;
4434;SDS011;46552;52.150;8.428;2022-12-29T06:27:17;2.20;;;0.80;;
4434;SDS011;46552;52.150;8.428;2022-12-29T06:29:44;7.50;;;0.90;;
4434;SDS011;46552;52.150;8.428;2022-12-29T06:32:11;5.17;;;1.10;;
4434;SDS011;46552;52.150;8.428;2022-12-29T06:34:40;7.83;;;3.37;;
4434;SDS011;46552;52.150;8.428;2022-12-29T06:37:07;2.27;;;0.80;;
4434;SDS011;46552;52.150;8.428;2022-12-29T06:39:34;2.50;;;0.93;;
4434;SDS011;46552;52.150;8.428;2022-12-29T06:42:03;2.80;;;0.77;;
4434;SDS011;46552;52.150;8.428;2022-12-29T06:44:30;2.53;;;0.67;;
4434;SDS011;46552;52.150;8.428;2022-12-29T06:46:58;4.30;;;0.80;;
4434;SDS011;46552;52.150;8.428;2022-12-29T06:49:25;2.50;;;0.80;;
4434;SDS011;46552;52.150;8.428;2022-12-29T06:51:52;3.73;;;1.00;;
4434;SDS011;46552;52.150;8.428;2022-12-29T06:54:20;2.50;;;1.00;;
4434;SDS011;46552;52.150;8.428;2022-12-29T06:56:47;4.20;;;1.40;;
4434;SDS011;46552;52.150;8.428;2022-12-29T06:59:16;3.30;;;1.07;;
4434;SDS011;46552;52.150;8.428;2022-12-29T07:01:43;8.33;;;1.67;;
4434;SDS011;46552;52.150;8.428;2022-12-29T07:04:10;3.90;;;1.20;;
4434;SDS011;46552;52.150;8.428;2022-12-29T07:06:37;3.10;;;1.20;;
4434;SDS011;46552;52.150;8.428;2022-12-29T07:09:05;2.50;;;1.17;;
4434;SDS011;46552;52.150;8.428;2022-12-29T07:11:33;3.23;;;1.20;;
4434;SDS011;46552;52.150;8.428;2022-12-29T07:14:00;3.90;;;1.60;;
4434;SDS011;46552;52.150;8.428;2022-12-29T07:16:28;3.97;;;1.43;;
4434;SDS011;46552;52.150;8.428;2022-12-29T07:18:56;2.93;;;1.40;;
4434;SDS011;46552;52.150;8.428;2022-12-29T07:21:24;5.07;;;1.80;;
4434;SDS011;46552;52.150;8.428;2022-12-29T07:23:53;5.17;;;2.07;;
4434;SDS011;46552;52.150;8.428;2022-12-29T07:26:20;5.37;;;2.20;;
4434;SDS011;46552;52.150;8.428;2022-12-29T07:28:47;4.73;;;1.70;;
4434;SDS011;46552;52.150;8.428;2022-12-29T07:31:16;2.90;;;1.50;;
4434;SDS011;46552;52.150;8.428;2022-12-29T07:33:47;5.23;;;2.37;;
4434;SDS011;46552;52.150;8.428;2022-12-29T07:36:14;3.77;;;1.63;;
4434;SDS011;46552;52.150;8.428;2022-12-29T07:38:42;7.27;;;2.73;;
4434;SDS011;46552;52.150;8.428;2022-12-29T07:41:10;5.47;;;2.10;;
4434;SDS011;46552;52.150;8.428;2022-12-29T07:43:37;4.97;;;1.77;;
4434;SDS011;46552;52.150;8.428;2022-12-29T07:46:04;4.00;;;1.53;;
4434;SDS011;46552;52.150;8.428;2022-12-29T07:48:31;3.87;;;1.20;;
4434;SDS011;46552;52.150;8.428;2022-12-29T07:51:00;7.03;;;2.00;;
4434;SDS011;46552;52.150;8.428;2022-12-29T07:53:27;13.60;;;1.67;;
4434;SDS011;46552;52.150;8.428;2022-12-29T07:55:56;6.43;;;1.80;;
4434;SDS011;46552;52.150;8.428;2022-12-29T07:58:23;2.83;;;1.20;;
4434;SDS011;46552;52.150;8.428;2022-12-29T08:00:52;7.23;;;1.63;;
4434;SDS011;46552;52.150;8.428;2022-12-29T08:03:20;5.93;;;1.73;;
4434;SDS011;46552;52.150;8.428;2022-12-29T08:05:47;5.77;;;1.70;;
4434;SDS011;46552;52.150;8.428;2022-12-29T08:08:16;6.97;;;1.50;;
4434;SDS011;46552;52.150;8.428;2022-12-29T08:10:45;6.50;;;1.40;;
4434;SDS011;46552;52.150;8.428;2022-12-29T08:13:12;11.60;;;2.13;;
4434;SDS011;46552;52.150;8.428;2022-12-29T08:15:39;4.63;;;1.37;;
4434;SDS011;46552;52.150;8.428;2022-12-29T08:18:06;6.70;;;1.50;;
4434;SDS011;46552;52.150;8.428;2022-12-29T08:20:34;6.33;;;1.87;;
4434;SDS011;46552;52.150;8.428;2022-12-29T08:23:02;3.43;;;1.30;;
4434;SDS011;46552;52.150;8.428;2022-12-29T08:25:31;5.00;;;1.07;;
4434;SDS011;46552;52.150;8.428;2022-12-29T08:27:58;4.03;;;1.33;;
4434;SDS011;46552;52.150;8.428;2022-12-29T08:30:25;4.37;;;1.30;;
4434;SDS011;46552;52.150;8.428;2022-12-29T08:32:52;7.03;;;1.60;;
4434;SDS011;46552;52.150;8.428;2022-12-29T08:35:20;6.10;;;2.00;;
4434;SDS011;46552;52.150;8.428;2022-12-29T08:37:47;3.80;;;1.10;;
4434;SDS011;46552;52.150;8.428;2022-12-29T08:40:14;5.13;;;1.40;;
4434;SDS011;46552;52.150;8.428;2022-12-29T08:42:43;7.67;;;1.47;;
4434;SDS011;46552;52.150;8.428;2022-12-29T08:45:10;6.00;;;1.47;;
4434;SDS011;46552;52.150;8.428;2022-12-29T08:47:38;7.83;;;1.20;;
4434;SDS011;46552;52.150;8.428;2022-12-29T08:50:05;6.47;;;1.13;;
4434;SDS011;46552;52.150;8.428;2022-12-29T08:52:33;4.00;;;1.43;;
4434;SDS011;46552;52.150;8.428;2022-12-29T08:55:00;5.60;;;1.53;;
4434;SDS011;46552;52.150;8.428;2022-12-29T08:57:27;7.63;;;1.47;;
4434;SDS011;46552;52.150;8.428;2022-12-29T08:59:56;5.37;;;1.23;;
4434;SDS011;46552;52.150;8.428;2022-12-29T09:02:23;4.90;;;1.23;;
4434;SDS011;46552;52.150;8.428;2022-12-29T09:04:51;6.67;;;1.30;;
4434;SDS011;46552;52.150;8.428;2022-12-29T09:07:18;3.63;;;1.77;;
4434;SDS011;46552;52.150;8.428;2022-12-29T09:09:46;5.30;;;1.00;;
4434;SDS011;46552;52.150;8.428;2022-12-29T09:12:13;5.20;;;1.60;;
4434;SDS011;46552;52.150;8.428;2022-12-29T09:14:40;5.67;;;1.37;;
4434;SDS011;46552;52.150;8.428;2022-12-29T09:17:10;7.13;;;1.60;;
4434;SDS011;46552;52.150;8.428;2022-12-29T09:19:55;9.43;;;1.43;;
4434;SDS011;46552;52.150;8.428;2022-12-29T09:22:22;6.90;;;2.03;;
4434;SDS011;46552;52.150;8.428;2022-12-29T09:24:49;5.90;;;1.37;;
4434;SDS011;46552;52.150;8.428;2022-12-29T09:27:17;8.80;;;1.10;;
4434;SDS011;46552;52.150;8.428;2022-12-29T09:29:44;6.37;;;1.40;;
4434;SDS011;46552;52.150;8.428;2022-12-29T09:32:12;6.90;;;1.40;;
4434;SDS011;46552;52.150;8.428;2022-12-29T09:34:40;14.93;;;1.90;;
4434;SDS011;46552;52.150;8.428;2022-12-29T09:37:07;3.07;;;1.47;;
4434;SDS011;46552;52.150;8.428;2022-12-29T09:39:34;10.40;;;1.90;;
4434;SDS011;46552;52.150;8.428;2022-12-29T09:42:01;8.00;;;1.70;;
4434;SDS011;46552;52.150;8.428;2022-12-29T09:44:42;5.00;;;1.40;;
4434;SDS011;46552;52.150;8.428;2022-12-29T09:47:19;6.67;;;1.33;;
4434;SDS011;46552;52.150;8.428;2022-12-29T09:49:47;6.30;;;1.40;;
4434;SDS011;46552;52.150;8.428;2022-12-29T09:52:20;5.97;;;1.00;;
4434;SDS011;46552;52.150;8.428;2022-12-29T09:54:51;9.60;;;1.03;;
4434;SDS011;46552;52.150;8.428;2022-12-29T09:57:23;9.83;;;1.07;;
4434;SDS011;46552;52.150;8.428;2022-12-29T09:59:54;4.10;;;1.00;;
4434;SDS011;46552;52.150;8.428;2022-12-29T10:02:32;7.10;;;1.87;;
4434;SDS011;46552;52.150;8.428;2022-12-29T10:05:04;10.23;;;1.67;;
4434;SDS011;46552;52.150;8.428;2022-12-29T10:07:40;10.57;;;1.80;;
4434;SDS011;46552;52.150;8.428;2022-12-29T10:10:18;6.43;;;2.10;;
4434;SDS011;46552;52.150;8.428;2022-12-29T10:12:53;10.73;;;2.00;;
4434;SDS011;46552;52.150;8.428;2022-12-29T10:18:26;4.10;;;1.20;;
4434;SDS011;46552;52.150;8.428;2022-12-29T10:21:13;4.43;;;1.60;;
4434;SDS011;46552;52.150;8.428;2022-12-29T10:23:48;7.43;;;1.20;;
4434;SDS011;46552;52.150;8.428;2022-12-29T10:26:18;4.93;;;1.30;;
4434;SDS011;46552;52.150;8.428;2022-12-29T10:28:47;10.17;;;1.50;;
4434;SDS011;46552;52.150;8.428;2022-12-29T10:31:19;8.37;;;1.97;;
4434;SDS011;46552;52.150;8.428;2022-12-29T10:33:51;8.47;;;1.60;;
4434;SDS011;46552;52.150;8.428;2022-12-29T10:36:30;7.03;;;2.47;;
4434;SDS011;46552;52.150;8.428;2022-12-29T10:39:05;6.87;;;1.50;;
4434;SDS011;46552;52.150;8.428;2022-12-29T10:41:41;5.97;;;1.40;;
4434;SDS011;46552;52.150;8.428;2022-12-29T10:44:15;9.93;;;1.80;;
4434;SDS011;46552;52.150;8.428;2022-12-29T10:46:44;10.73;;;2.00;;
4434;SDS011;46552;52.150;8.428;2022-12-29T10:49:21;5.60;;;1.93;;
4434;SDS011;46552;52.150;8.428;2022-12-29T10:51:54;9.33;;;2.13;;
4434;SDS011;46552;52.150;8.428;2022-12-29T10:54:23;8.70;;;2.20;;
4434;SDS011;46552;52.150;8.428;2022-12-29T10:56:56;10.20;;;2.47;;
4434;SDS011;46552;52.150;8.428;2022-12-29T10:59:28;4.97;;;1.73;;
4434;SDS011;46552;52.150;8.428;2022-12-29T11:01:58;8.13;;;2.07;;
4434;SDS011;46552;52.150;8.428;2022-12-29T11:04:43;7.27;;;1.80;;
4434;SDS011;46552;52.150;8.428;2022-12-29T11:07:21;13.57;;;2.73;;
4434;SDS011;46552;52.150;8.428;2022-12-29T11:09:48;6.10;;;2.10;;
4434;SDS011;46552;52.150;8.428;2022-12-29T11:12:20;8.33;;;1.67;;
4434;SDS011;46552;52.150;8.428;2022-12-29T11:15:01;11.00;;;2.07;;
4434;SDS011;46552;52.150;8.428;2022-12-29T11:17:42;7.50;;;1.80;;
4434;SDS011;46552;52.150;8.428;2022-12-29T11:20:31;7.03;;;1.90;;
4434;SDS011;46552;52.150;8.428;2022-12-29T11:23:01;8.20;;;2.33;;
4434;SDS011;46552;52.150;8.428;2022-12-29T11:25:29;6.70;;;1.77;;
4434;SDS011;46552;52.150;8.428;2022-12-29T11:27:57;8.30;;;2.30;;
4434;SDS011;46552;52.150;8.428;2022-12-29T11:30:27;5.67;;;2.20;;
4434;SDS011;46552;52.150;8.428;2022-12-29T11:32:56;10.93;;;2.03;;
4434;SDS011;46552;52.150;8.428;2022-12-29T11:35:32;9.40;;;1.70;;
4434;SDS011;46552;52.150;8.428;2022-12-29T11:38:01;6.17;;;1.97;;
4434;SDS011;46552;52.150;8.428;2022-12-29T11:40:30;15.27;;;2.37;;
4434;SDS011;46552;52.150;8.428;2022-12-29T11:43:04;3.53;;;1.43;;
4434;SDS011;46552;52.150;8.428;2022-12-29T11:45:32;8.30;;;1.70;;
4434;SDS011;46552;52.150;8.428;2022-12-29T11:48:06;13.03;;;1.70;;
4434;SDS011;46552;52.150;8.428;2022-12-29T11:50:37;7.90;;;2.10;;
4434;SDS011;46552;52.150;8.428;2022-12-29T11:53:07;7.40;;;2.00;;
4434;SDS011;46552;52.150;8.428;2022-12-29T11:55:49;12.60;;;2.53;;
4434;SDS011;46552;52.150;8.428;2022-12-29T11:58:19;5.80;;;1.70;;
4434;SDS011;46552;52.150;8.428;2022-12-29T12:00:46;10.70;;;1.37;;
4434;SDS011;46552;52.150;8.428;2022-12-29T12:03:16;7.77;;;1.70;;
4434;SDS011;46552;52.150;8.428;2022-12-29T12:05:47;8.57;;;2.10;;
4434;SDS011;46552;52.150;8.428;2022-12-29T12:08:19;5.80;;;1.83;;
4434;SDS011;46552;52.150;8.428;2022-12-29T12:10:54;6.83;;;2.03;;
4434;SDS011;46552;52.150;8.428;2022-12-29T12:13:25;9.23;;;2.00;;
4434;SDS011;46552;52.150;8.428;2022-12-29T12:15:59;8.60;;;2.67;;
4434;SDS011;46552;52.150;8.428;2022-12-29T12:18:34;10.70;;;3.10;;
4434;SDS011;46552;52.150;8.428;2022-12-29T12:21:14;11.53;;;2.40;;
4434;SDS011;46552;52.150;8.428;2022-12-29T12:26:42;10.13;;;2.30;;
4434;SDS011;46552;52.150;8.428;2022-12-29T12:29:19;9.53;;;2.10;;
4434;SDS011;46552;52.150;8.428;2022-12-29T12:31:52;12.83;;;2.00;;
4434;SDS011;46552;52.150;8.428;2022-12-29T12:34:24;8.03;;;1.70;;
4434;SDS011;46552;52.150;8.428;2022-12-29T12:37:05;6.83;;;2.30;;
4434;SDS011;46552;52.150;8.428;2022-12-29T12:39:56;11.97;;;2.10;;
4434;SDS011;46552;52.150;8.428;2022-12-29T12:42:48;10.57;;;2.60;;
4434;SDS011;46552;52.150;8.428;2022-12-29T12:45:28;10.40;;;2.80;;
4434;SDS011;46552;52.150;8.428;2022-12-29T12:48:07;9.30;;;1.60;;
4434;SDS011;46552;52.150;8.428;2022-12-29T12:50:50;9.30;;;2.60;;
4434;SDS011;46552;52.150;8.428;2022-12-29T12:59:06;9.40;;;3.43;;
4434;SDS011;46552;52.150;8.428;2022-12-29T13:01:46;12.20;;;2.50;;
4434;SDS011;46552;52.150;8.428;2022-12-29T13:04:27;9.13;;;2.50;;
4434;SDS011;46552;52.150;8.428;2022-12-29T13:07:06;11.87;;;2.53;;
4434;SDS011;46552;52.150;8.428;2022-12-29T13:12:41;6.17;;;1.97;;
4434;SDS011;46552;52.150;8.428;2022-12-29T13:15:18;8.40;;;1.90;;
4434;SDS011;46552;52.150;8.428;2022-12-29T13:17:54;4.10;;;1.80;;
4434;SDS011;46552;52.150;8.428;2022-12-29T13:20:28;6.87;;;2.13;;
4434;SDS011;46552;52.150;8.428;2022-12-29T13:23:03;23.50;;;2.67;;
4434;SDS011;46552;52.150;8.428;2022-12-29T13:25:41;6.87;;;2.20;;
4434;SDS011;46552;52.150;8.428;2022-12-29T13:28:16;6.83;;;1.60;;
4434;SDS011;46552;52.150;8.428;2022-12-29T13:30:56;12.37;;;2.80;;
4434;SDS011;46552;52.150;8.428;2022-12-29T13:33:29;5.57;;;2.03;;
4434;SDS011;46552;52.150;8.428;2022-12-29T13:36:09;8.20;;;2.17;;
4434;SDS011;46552;52.150;8.428;2022-12-29T13:38:45;6.50;;;2.10;;
4434;SDS011;46552;52.150;8.428;2022-12-29T13:41:18;9.37;;;2.10;;
4434;SDS011;46552;52.150;8.428;2022-12-29T13:43:59;11.73;;;2.37;;
4434;SDS011;46552;52.150;8.428;2022-12-29T13:46:29;24.87;;;2.83;;
4434;SDS011;46552;52.150;8.428;2022-12-29T13:49:02;7.90;;;2.10;;
4434;SDS011;46552;52.150;8.428;2022-12-29T13:51:33;8.27;;;2.27;;
4434;SDS011;46552;52.150;8.428;2022-12-29T13:54:05;8.97;;;2.10;;
4434;SDS011;46552;52.150;8.428;2022-12-29T13:56:42;7.53;;;2.30;;
4434;SDS011;46552;52.150;8.428;2022-12-29T13:59:17;15.03;;;1.90;;
4434;SDS011;46552;52.150;8.428;2022-12-29T14:01:50;15.40;;;2.37;;
4434;SDS011;46552;52.150;8.428;2022-12-29T14:04:25;9.90;;;2.90;;
4434;SDS011;46552;52.150;8.428;2022-12-29T14:06:58;6.43;;;1.63;;
4434;SDS011;46552;52.150;8.428;2022-12-29T14:12:21;9.40;;;1.97;;
4434;SDS011;46552;52.150;8.428;2022-12-29T14:14:55;9.60;;;2.30;;
4434;SDS011;46552;52.150;8.428;2022-12-29T14:18:03;13.07;;;3.03;;
4434;SDS011;46552;52.150;8.428;2022-12-29T14:20:36;10.33;;;2.17;;
4434;SDS011;46552;52.150;8.428;2022-12-29T14:23:15;7.30;;;2.30;;
4434;SDS011;46552;52.150;8.428;2022-12-29T14:28:42;6.80;;;1.80;;
4434;SDS011;46552;52.150;8.428;2022-12-29T14:34:15;14.60;;;2.63;;
4434;SDS011;46552;52.150;8.428;2022-12-29T14:36:58;10.50;;;2.27;;
4434;SDS011;46552;52.150;8.428;2022-12-29T14:39:29;10.00;;;2.00;;
4434;SDS011;46552;52.150;8.428;2022-12-29T14:41:59;6.60;;;2.40;;
4434;SDS011;46552;52.150;8.428;2022-12-29T14:44:29;4.73;;;2.03;;
4434;SDS011;46552;52.150;8.428;2022-12-29T14:46:57;11.33;;;2.80;;
4434;SDS011;46552;52.150;8.428;2022-12-29T14:49:27;10.83;;;2.70;;
4434;SDS011;46552;52.150;8.428;2022-12-29T14:52:04;9.10;;;1.90;;
4434;SDS011;46552;52.150;8.428;2022-12-29T14:57:32;7.27;;;2.67;;
4434;SDS011;46552;52.150;8.428;2022-12-29T15:02:52;10.93;;;2.40;;
4434;SDS011;46552;52.150;8.428;2022-12-29T15:05:33;10.93;;;2.57;;
4434;SDS011;46552;52.150;8.428;2022-12-29T15:08:04;14.97;;;2.53;;
4434;SDS011;46552;52.150;8.428;2022-12-29T15:10:34;10.37;;;2.53;;
4434;SDS011;46552;52.150;8.428;2022-12-29T15:13:13;12.37;;;2.70;;
4434;SDS011;46552;52.150;8.428;2022-12-29T15:15:44;28.03;;;4.57;;
4434;SDS011;46552;52.150;8.428;2022-12-29T15:18:13;11.87;;;3.00;;
4434;SDS011;46552;52.150;8.428;2022-12-29T15:20:49;15.57;;;2.53;;
4434;SDS011;46552;52.150;8.428;2022-12-29T15:23:17;15.83;;;2.60;;
4434;SDS011;46552;52.150;8.428;2022-12-29T15:25:46;11.63;;;3.00;;
4434;SDS011;46552;52.150;8.428;2022-12-29T15:28:16;10.53;;;3.60;;
4434;SDS011;46552;52.150;8.428;2022-12-29T15:30:54;13.37;;;2.67;;
4434;SDS011;46552;52.150;8.428;2022-12-29T15:33:23;14.43;;;3.53;;
4434;SDS011;46552;52.150;8.428;2022-12-29T15:35:53;28.83;;;3.13;;
4434;SDS011;46552;52.150;8.428;2022-12-29T15:38:25;6.83;;;2.10;;
4434;SDS011;46552;52.150;8.428;2022-12-29T15:40:54;8.57;;;2.53;;
4434;SDS011;46552;52.150;8.428;2022-12-29T15:43:33;9.33;;;2.07;;
4434;SDS011;46552;52.150;8.428;2022-12-29T15:46:12;11.53;;;2.33;;
4434;SDS011;46552;52.150;8.428;2022-12-29T15:48:40;9.20;;;2.23;;
4434;SDS011;46552;52.150;8.428;2022-12-29T15:51:11;8.80;;;3.03;;
4434;SDS011;46552;52.150;8.428;2022-12-29T15:53:46;16.93;;;2.30;;
4434;SDS011;46552;52.150;8.428;2022-12-29T15:56:15;13.77;;;2.40;;
4434;SDS011;46552;52.150;8.428;2022-12-29T15:58:43;12.90;;;2.37;;
4434;SDS011;46552;52.150;8.428;2022-12-29T16:01:19;7.17;;;1.93;;
4434;SDS011;46552;52.150;8.428;2022-12-29T16:03:52;10.47;;;2.80;;
4434;SDS011;46552;52.150;8.428;2022-12-29T16:06:26;8.93;;;1.93;;